createdAt,value
2022-09-06T00:01:45.413Z,0.00
2022-09-06T00:06:38.044Z,0.00
2022-09-06T00:11:37.906Z,0.00
2022-09-06T00:16:37.751Z,0.00
2022-09-06T00:21:37.894Z,0.00
2022-09-06T00:26:37.698Z,0.00
2022-09-06T00:31:37.651Z,0.00
2022-09-06T00:36:40.496Z,0.00
2022-09-06T00:41:37.491Z,0.00
2022-09-06T00:46:37.415Z,0.00
2022-09-06T00:51:37.268Z,0.00
2022-09-06T00:56:37.305Z,0.00
2022-09-06T01:01:37.453Z,0.00
2022-09-06T01:06:38.163Z,0.00
2022-09-06T01:11:37.010Z,0.00
2022-09-06T01:16:36.963Z,0.00
2022-09-06T01:21:36.925Z,0.00
2022-09-06T01:26:36.890Z,0.00
2022-09-06T01:31:36.743Z,0.00
2022-09-06T01:37:08.305Z,0.00
2022-09-06T01:41:37.649Z,0.00
2022-09-06T01:46:36.727Z,0.00
2022-09-06T01:51:36.538Z,0.00
2022-09-06T01:56:36.438Z,0.00
2022-09-06T02:01:36.468Z,0.00
2022-09-06T02:06:36.284Z,0.00
2022-09-06T02:11:36.177Z,0.00
2022-09-06T02:16:36.671Z,0.00
2022-09-06T02:21:36.040Z,0.00
2022-09-06T02:26:36.175Z,0.00
2022-09-06T02:31:35.920Z,0.00
2022-09-06T02:36:38.978Z,0.00
2022-09-06T02:41:35.816Z,0.00
2022-09-06T02:46:35.784Z,0.00
2022-09-06T02:51:35.720Z,0.00
2022-09-06T02:56:35.801Z,0.00
2022-09-06T03:01:35.626Z,0.00
2022-09-06T03:06:35.542Z,0.00
2022-09-06T03:11:35.489Z,0.00
2022-09-06T03:16:35.491Z,0.00
2022-09-06T03:21:35.260Z,0.00
2022-09-06T03:26:35.739Z,0.00
2022-09-06T03:31:35.128Z,0.00
2022-09-06T03:36:38.212Z,0.00
2022-09-06T03:41:35.105Z,0.00
2022-09-06T03:46:42.900Z,0.00
2022-09-06T03:51:42.494Z,0.00
2022-09-06T03:56:34.900Z,0.00
2022-09-06T04:01:35.056Z,0.00
2022-09-06T04:06:34.850Z,0.00
2022-09-06T04:11:34.641Z,0.00
2022-09-06T04:16:42.647Z,0.00
2022-09-06T04:21:41.978Z,0.00
2022-09-06T04:26:34.513Z,5.62
2022-09-06T04:31:34.398Z,11.25
2022-09-06T04:36:37.938Z,11.25
2022-09-06T04:41:34.286Z,11.25
2022-09-06T04:46:34.258Z,16.88
2022-09-06T04:51:34.012Z,28.12
2022-09-06T04:56:34.033Z,33.75
2022-09-06T05:01:33.996Z,39.38
2022-09-06T05:06:33.960Z,45.00
2022-09-06T05:11:33.826Z,56.25
2022-09-06T05:16:33.941Z,61.88
2022-09-06T05:21:33.644Z,67.50
2022-09-06T05:26:33.802Z,84.38
2022-09-06T05:31:33.593Z,106.88
2022-09-06T05:36:36.558Z,123.75
2022-09-06T05:41:33.418Z,135.00
2022-09-06T05:46:34.321Z,146.25
2022-09-06T05:51:33.330Z,163.12
2022-09-06T05:56:33.246Z,180.00
2022-09-06T06:01:33.317Z,202.50
2022-09-06T06:06:33.178Z,241.88
2022-09-06T06:11:33.138Z,253.12
2022-09-06T06:16:33.283Z,247.50
2022-09-06T06:21:33.097Z,281.25
2022-09-06T06:26:32.823Z,371.25
2022-09-06T06:31:32.770Z,765.00
2022-09-06T06:36:35.701Z,495.00
2022-09-06T06:41:32.654Z,410.62
2022-09-06T06:46:32.559Z,489.38
2022-09-06T06:51:32.561Z,703.12
2022-09-06T06:56:33.116Z,1203.75
2022-09-06T07:01:32.484Z,540.00
2022-09-06T07:11:33.328Z,950.62
2022-09-06T07:16:32.371Z,922.50
2022-09-06T07:21:39.417Z,849.38
2022-09-06T07:26:33.162Z,1535.62
2022-09-06T07:36:36.029Z,1563.75
2022-09-06T07:41:31.941Z,1811.25
2022-09-06T07:46:31.857Z,1974.38
2022-09-06T07:51:31.744Z,1018.12
2022-09-06T07:56:31.666Z,601.88
2022-09-06T08:01:31.533Z,517.50
2022-09-06T08:11:32.401Z,489.38
2022-09-06T08:16:31.614Z,506.25
2022-09-06T08:21:31.646Z,506.25
2022-09-06T08:26:31.250Z,483.75
2022-09-06T08:31:39.063Z,500.62
2022-09-06T08:36:34.094Z,495.00
2022-09-06T08:41:31.132Z,450.00
2022-09-06T08:46:31.056Z,483.75
2022-09-06T08:51:33.304Z,579.38
2022-09-06T08:56:30.841Z,691.88
2022-09-06T09:01:30.791Z,759.38
2022-09-06T09:06:30.818Z,630.00
2022-09-06T09:11:39.487Z,635.62
2022-09-06T09:16:30.824Z,646.88
2022-09-06T09:21:31.137Z,540.00
2022-09-06T09:26:30.553Z,478.12
2022-09-06T09:31:30.546Z,540.00
2022-09-06T09:36:33.361Z,585.00
2022-09-06T09:41:31.384Z,601.88
2022-09-06T09:46:30.321Z,815.62
2022-09-06T09:51:30.066Z,810.00
2022-09-06T09:56:30.356Z,461.25
2022-09-06T10:01:30.086Z,298.12
2022-09-06T10:11:31.026Z,101.25
2022-09-06T10:16:30.061Z,73.12
2022-09-06T10:28:44.526Z,28.12
2022-09-06T10:33:43.414Z,16.88
2022-09-06T10:38:43.420Z,16.88
2022-09-06T10:43:43.362Z,28.12
2022-09-06T10:48:43.303Z,33.75
2022-09-06T10:53:43.333Z,56.25
2022-09-06T11:04:04.169Z,73.12
2022-09-06T11:13:45.928Z,140.62
2022-09-06T11:18:43.093Z,185.62
2022-09-06T11:23:42.838Z,213.75
2022-09-06T11:28:42.679Z,230.62
2022-09-06T11:33:42.787Z,213.75
2022-09-06T11:38:42.607Z,225.00
2022-09-06T11:43:42.539Z,230.62
2022-09-06T11:48:42.440Z,303.75
2022-09-06T11:53:42.394Z,427.50
2022-09-06T11:58:42.278Z,579.38
2022-09-06T12:04:06.901Z,663.75
2022-09-06T12:08:43.237Z,635.62
2022-09-06T12:13:45.192Z,658.12
2022-09-06T12:18:49.888Z,613.12
2022-09-06T12:23:49.500Z,641.25
2022-09-06T12:28:49.873Z,753.75
2022-09-06T12:33:41.957Z,804.38
2022-09-06T12:38:49.807Z,720.00
2022-09-06T12:43:49.288Z,680.62
2022-09-06T12:48:41.716Z,506.25
2022-09-06T12:53:41.640Z,343.12
2022-09-06T12:58:41.953Z,286.88
2022-09-06T13:03:41.479Z,264.38
2022-09-06T13:08:41.406Z,258.75
2022-09-06T13:13:44.528Z,258.75
2022-09-06T13:18:41.348Z,258.75
2022-09-06T13:23:41.456Z,258.75
2022-09-06T13:28:41.206Z,253.12
2022-09-06T13:33:41.241Z,253.12
2022-09-06T13:38:41.328Z,253.12
2022-09-06T13:43:41.702Z,253.12
2022-09-06T13:48:41.342Z,258.75
2022-09-06T13:53:41.107Z,264.38
2022-09-06T13:58:40.721Z,253.12
2022-09-06T14:03:40.774Z,253.12
2022-09-06T14:09:05.684Z,253.12
2022-09-06T14:13:44.717Z,264.38
2022-09-06T14:18:40.473Z,270.00
2022-09-06T14:23:40.558Z,286.88
2022-09-06T14:28:40.591Z,309.38
2022-09-06T14:33:40.394Z,360.00
2022-09-06T14:38:40.405Z,388.12
2022-09-06T14:43:40.221Z,399.38
2022-09-06T14:48:42.251Z,405.00
2022-09-06T14:53:41.114Z,410.62
2022-09-06T14:58:40.293Z,416.25
2022-09-06T15:03:40.030Z,421.88
2022-09-06T15:08:40.122Z,416.25
2022-09-06T15:13:42.956Z,416.25
2022-09-06T15:18:39.788Z,421.88
2022-09-06T15:23:40.255Z,421.88
2022-09-06T15:28:39.544Z,225.00
2022-09-06T15:33:39.535Z,185.62
2022-09-06T15:38:39.441Z,180.00
2022-09-06T15:43:39.553Z,168.75
2022-09-06T15:48:39.443Z,163.12
2022-09-06T15:53:39.352Z,157.50
2022-09-06T15:58:39.222Z,151.88
2022-09-06T16:03:39.195Z,146.25
2022-09-06T16:08:39.184Z,140.62
2022-09-06T16:13:42.305Z,140.62
2022-09-06T16:18:39.132Z,135.00
2022-09-06T16:23:38.873Z,129.38
2022-09-06T16:29:49.381Z,123.75
2022-09-06T16:34:49.298Z,118.12
2022-09-06T16:39:49.373Z,118.12
2022-09-06T16:44:49.165Z,112.50
2022-09-06T16:49:49.189Z,101.25
2022-09-06T16:54:56.898Z,95.62
2022-09-06T16:59:49.118Z,90.00
2022-09-06T17:04:49.053Z,78.75
2022-09-06T17:09:48.977Z,73.12
2022-09-06T17:14:48.923Z,61.88
2022-09-06T17:19:51.809Z,45.00
2022-09-06T17:24:48.879Z,39.38
2022-09-06T17:38:33.094Z,16.88
2022-09-06T17:43:36.025Z,11.25
2022-09-06T18:05:11.620Z,0.00
2022-09-06T18:18:44.644Z,0.00
2022-09-06T18:23:44.519Z,0.00
2022-09-06T18:28:44.983Z,0.00
2022-09-06T18:33:44.488Z,0.00
2022-09-06T18:38:44.296Z,0.00
2022-09-06T18:43:44.321Z,0.00
2022-09-06T18:48:44.498Z,0.00
2022-09-06T18:53:44.893Z,0.00
2022-09-06T18:58:44.028Z,0.00
2022-09-06T19:03:43.943Z,0.00
2022-09-06T19:08:48.799Z,0.00
2022-09-06T19:13:44.038Z,0.00
2022-09-06T19:18:43.761Z,0.00
